Flight Track Log - Related Links

Times and Time Zones

All times are in EDT time to prevent confusion due to time zone crossing. See the WIG7407 flight status page for this flight to view local times or setup timezone preferences in your user account.

Time Position Orientation Groundspeed Altitude Reporting Facility
EDT Latitude Longitude Course Direction KTS MPH feet Rate Location/Type
Thu 07:56:12 PM 44.5658 -73.4419 188° South 131 151 2,200  Level Boston Center
Thu 07:57:13 PM 44.5292 -73.4489 188° South 134 154 3,200 976 Climbing Boston Center
Thu 07:58:15 PM 44.4944 -73.4606 193° South 129 148 4,200 976 Climbing Boston Center
Thu 07:59:16 PM 44.4525 -73.4686 188° South 136 157 5,200 984 Climbing Boston Center
Thu 08:00:17 PM 44.4111 -73.4722 184° South 140 161 6,200 919 Climbing Boston Center
Thu 08:01:20 PM 44.3722 -73.4797 188° South 141 162 7,100 871 Climbing Boston Center
Thu 08:02:21 PM 44.3308 -73.4906 191° South 142 163 8,000 446 Climbing Boston Center
Thu 08:03:21 PM 44.2892 -73.5039 193° South 154 177 8,000  Level Boston Center
Thu 08:04:22 PM 44.2472 -73.5139 190° South 156 180 8,000 49 Level Boston Center
Thu 08:05:23 PM 44.1997 -73.5183 184° South 160 184 8,100  Climbing Boston Center
Thu 08:06:26 PM 44.1544 -73.5256 187° South 164 189 8,000  Descending Boston Center
Thu 08:07:27 PM 44.1056 -73.5361 189° South 164 189 8,100  Climbing Boston Center
Thu 08:08:27 PM 44.0614 -73.5439 187° South 162 186 8,000  Descending Boston Center
Thu 08:09:31 PM 44.0172 -73.5522 188° South 162 186 8,100 48 Climbing Boston Center
Thu 08:10:32 PM 43.9697 -73.5675 193° South 164 189 8,100  Level Boston Center
Thu 08:11:32 PM 43.9236 -73.5761 188° South 168 193 8,100 -50 Level Boston Center
Thu 08:12:33 PM 43.8744 -73.5833 186° South 166 191 8,000  Descending Boston Center
Thu 08:13:34 PM 43.8306 -73.5931 189° South 162 186 8,100  Climbing Boston Center
Thu 08:14:34 PM 43.7842 -73.6022 188° South 169 194 8,000 -48 Descending Boston Center
Thu 08:15:38 PM 43.7347 -73.6111 187° South 168 193 8,000  Level Boston Center
Thu 08:16:17 PM 43.7081 -73.6167 189° South 167 192 8,000  Level Boston Center
Thu 08:17:11 PM 43.6622 -73.6219 185° South 164 189 8,000  Level Boston Center
Thu 08:18:12 PM 43.6172 -73.6331 190° South 166 191 8,000 49 Level Boston Center
Thu 08:19:13 PM 43.5728 -73.6417 188° South 161 185 8,100 66 Climbing Boston Center
Thu 08:19:43 PM 43.5522 -73.6442 185° South 160 184 8,100  Level Boston Center
Thu 08:20:20 PM 43.5203 -73.6475 184° South 164 189 8,100  Level Boston Center
Thu 08:21:20 PM 43.4758 -73.6558 188° South 164 189 8,100  Level Boston Center
Thu 08:22:21 PM 43.4308 -73.6672 190° South 165 190 8,100 -52 Level Boston Center
Thu 08:23:16 PM 43.3864 -73.6756 188° South 169 194 8,000 -70 Descending Boston Center
Thu 08:23:47 PM 43.3664 -73.6797 189° South 169 194 8,000  Level Boston Center
Thu 08:24:17 PM 43.3414 -73.6869 192° South 168 193 8,000 100 Level Boston Center
Thu 08:24:47 PM 43.3175 -73.6931 191° South 167 192 8,100 100 Climbing Boston Center
Thu 08:25:17 PM 43.2964 -73.6981 190° South 167 192 8,100 -400 Level Boston Center
Thu 08:25:47 PM 43.2708 -73.7033 189° South 170 196 7,700 -689 Descending Boston Center
Thu 08:26:18 PM 43.2475 -73.7078 188° South 175 201 7,400 -656 Descending Boston Center
Thu 08:26:51 PM 43.2214 -73.7133 189° South 179 206 7,000 -638 Descending Boston Center
Thu 08:27:52 PM 43.1700 -73.7217 187° South 175 201 6,400 -595 Descending Boston Center
Thu 08:28:52 PM 43.1225 -73.7286 186° South 173 199 5,800 -634 Descending Boston Center
Thu 08:29:55 PM 43.0750 -73.7381 188° South 173 199 5,100 -629 Descending Boston Center
Thu 08:30:56 PM 43.0264 -73.7406 182° South 175 201 4,500 -593 Descending Boston Center
Thu 08:31:26 PM 42.9989 -73.7408 180° South 176 203 4,200 -600 Descending Boston Center
Thu 08:31:56 PM 42.9736 -73.7403 179° South 177 204 3,900 -593 Descending Boston Center
Thu 08:32:57 PM 42.9242 -73.7400 180° South 177 204 3,300 -446 Descending Boston Center
Thu 08:33:57 PM 42.8769 -73.7350 176° South 172 198 3,000 -149 Descending Boston Center
Thu 08:34:58 PM 42.8325 -73.7331 178° South 162 186 3,000 -247 Level Boston Center
Thu 08:35:34 PM 42.8033 -73.7303 176° South 165 190 2,600 -1,000 Descending Boston Center
Thu 08:36:40 PM 42.7522 -73.7394 188° South 175 201 1,300 -1,031 Descending Boston Center
Thu 08:37:42 PM 42.7483 -73.7847 263° West 102 117 400 -420 Descending Boston Center
Thu 08:39:03 PM 42.7542 -73.8056 291° West 44 51 300 -42 Descending Boston Center
Thu 08:40:04 PM 42.7614 -73.8042 North 36 41 300  Level Boston Center

Login

Don't have an account? Register now (free) for customized features, flight alerts, and more!